sensor_id;sensor_type;location;lat;lon;timestamp;P1;durP1;ratioP1;P2;durP2;ratioP2
75413;SDS011;64758;52.122;5.404;2022-12-13T00:01:43;24.13;;;10.80;;
75413;SDS011;64758;52.122;5.404;2022-12-13T00:04:11;27.98;;;10.95;;
75413;SDS011;64758;52.122;5.404;2022-12-13T00:06:38;23.50;;;10.35;;
75413;SDS011;64758;52.122;5.404;2022-12-13T00:09:06;26.38;;;11.95;;
75413;SDS011;64758;52.122;5.404;2022-12-13T00:11:34;33.00;;;12.70;;
75413;SDS011;64758;52.122;5.404;2022-12-13T00:14:01;33.20;;;11.20;;
75413;SDS011;64758;52.122;5.404;2022-12-13T00:16:27;27.90;;;10.05;;
75413;SDS011;64758;52.122;5.404;2022-12-13T00:18:57;22.50;;;9.98;;
75413;SDS011;64758;52.122;5.404;2022-12-13T00:21:26;26.83;;;10.30;;
75413;SDS011;64758;52.122;5.404;2022-12-13T00:23:55;24.42;;;9.82;;
75413;SDS011;64758;52.122;5.404;2022-12-13T00:26:24;24.05;;;10.07;;
75413;SDS011;64758;52.122;5.404;2022-12-13T00:28:53;29.95;;;10.32;;
75413;SDS011;64758;52.122;5.404;2022-12-13T00:31:21;23.17;;;9.40;;
75413;SDS011;64758;52.122;5.404;2022-12-13T00:34:09;23.27;;;10.07;;
75413;SDS011;64758;52.122;5.404;2022-12-13T00:36:35;25.00;;;9.85;;
75413;SDS011;64758;52.122;5.404;2022-12-13T00:39:02;22.17;;;9.05;;
75413;SDS011;64758;52.122;5.404;2022-12-13T00:41:32;26.83;;;10.37;;
75413;SDS011;64758;52.122;5.404;2022-12-13T00:44:01;19.85;;;9.40;;
75413;SDS011;64758;52.122;5.404;2022-12-13T00:46:28;21.98;;;9.77;;
75413;SDS011;64758;52.122;5.404;2022-12-13T00:48:56;25.08;;;10.57;;
75413;SDS011;64758;52.122;5.404;2022-12-13T00:51:24;23.17;;;10.00;;
75413;SDS011;64758;52.122;5.404;2022-12-13T00:53:53;18.42;;;9.57;;
75413;SDS011;64758;52.122;5.404;2022-12-13T00:56:22;24.13;;;10.00;;
75413;SDS011;64758;52.122;5.404;2022-12-13T00:58:52;22.98;;;9.77;;
75413;SDS011;64758;52.122;5.404;2022-12-13T01:01:23;16.03;;;8.60;;
75413;SDS011;64758;52.122;5.404;2022-12-13T01:03:52;25.23;;;10.23;;
75413;SDS011;64758;52.122;5.404;2022-12-13T01:06:21;18.35;;;9.02;;
75413;SDS011;64758;52.122;5.404;2022-12-13T01:08:53;21.67;;;9.15;;
75413;SDS011;64758;52.122;5.404;2022-12-13T01:11:19;20.60;;;9.10;;
75413;SDS011;64758;52.122;5.404;2022-12-13T01:13:46;22.63;;;9.30;;
75413;SDS011;64758;52.122;5.404;2022-12-13T01:16:13;23.65;;;9.32;;
75413;SDS011;64758;52.122;5.404;2022-12-13T01:18:40;20.98;;;9.55;;
75413;SDS011;64758;52.122;5.404;2022-12-13T01:21:09;28.17;;;9.97;;
75413;SDS011;64758;52.122;5.404;2022-12-13T01:23:38;20.90;;;8.80;;
75413;SDS011;64758;52.122;5.404;2022-12-13T01:26:06;20.92;;;9.32;;
75413;SDS011;64758;52.122;5.404;2022-12-13T01:28:34;20.13;;;9.43;;
75413;SDS011;64758;52.122;5.404;2022-12-13T01:31:03;17.93;;;8.53;;
75413;SDS011;64758;52.122;5.404;2022-12-13T01:33:32;20.90;;;9.48;;
75413;SDS011;64758;52.122;5.404;2022-12-13T01:35:59;21.05;;;9.75;;
75413;SDS011;64758;52.122;5.404;2022-12-13T01:38:27;18.38;;;8.07;;
75413;SDS011;64758;52.122;5.404;2022-12-13T01:40:54;25.10;;;10.83;;
75413;SDS011;64758;52.122;5.404;2022-12-13T01:43:28;25.58;;;9.45;;
75413;SDS011;64758;52.122;5.404;2022-12-13T01:46:07;19.85;;;9.82;;
75413;SDS011;64758;52.122;5.404;2022-12-13T01:48:40;20.02;;;9.13;;
75413;SDS011;64758;52.122;5.404;2022-12-13T01:51:12;20.77;;;8.13;;
75413;SDS011;64758;52.122;5.404;2022-12-13T01:53:43;24.48;;;10.20;;
75413;SDS011;64758;52.122;5.404;2022-12-13T01:56:22;27.00;;;9.57;;
75413;SDS011;64758;52.122;5.404;2022-12-13T01:58:55;16.85;;;7.70;;
75413;SDS011;64758;52.122;5.404;2022-12-13T02:01:25;19.30;;;8.93;;
75413;SDS011;64758;52.122;5.404;2022-12-13T02:03:53;26.10;;;9.95;;
75413;SDS011;64758;52.122;5.404;2022-12-13T02:06:26;20.02;;;7.82;;
75413;SDS011;64758;52.122;5.404;2022-12-13T02:08:58;22.90;;;9.30;;
75413;SDS011;64758;52.122;5.404;2022-12-13T02:11:26;23.52;;;9.13;;
75413;SDS011;64758;52.122;5.404;2022-12-13T02:13:53;23.10;;;10.45;;
75413;SDS011;64758;52.122;5.404;2022-12-13T02:24:47;25.63;;;9.63;;
75413;SDS011;64758;52.122;5.404;2022-12-13T02:27:40;19.57;;;9.03;;
75413;SDS011;64758;52.122;5.404;2022-12-13T02:30:32;22.08;;;8.20;;
75413;SDS011;64758;52.122;5.404;2022-12-13T02:40:56;23.80;;;9.50;;
75413;SDS011;64758;52.122;5.404;2022-12-13T02:43:31;22.33;;;9.85;;
75413;SDS011;64758;52.122;5.404;2022-12-13T02:46:10;20.67;;;9.07;;
75413;SDS011;64758;52.122;5.404;2022-12-13T02:48:39;19.65;;;8.93;;
75413;SDS011;64758;52.122;5.404;2022-12-13T02:51:08;20.45;;;8.18;;
75413;SDS011;64758;52.122;5.404;2022-12-13T02:53:37;20.57;;;8.23;;
75413;SDS011;64758;52.122;5.404;2022-12-13T02:56:06;21.17;;;8.85;;
75413;SDS011;64758;52.122;5.404;2022-12-13T02:58:34;19.65;;;9.30;;
75413;SDS011;64758;52.122;5.404;2022-12-13T03:15:46;19.97;;;7.83;;
75413;SDS011;64758;52.122;5.404;2022-12-13T03:18:23;24.30;;;8.50;;
75413;SDS011;64758;52.122;5.404;2022-12-13T03:20:57;18.75;;;7.80;;
75413;SDS011;64758;52.122;5.404;2022-12-13T03:23:26;23.07;;;8.83;;
75413;SDS011;64758;52.122;5.404;2022-12-13T03:25:54;18.58;;;8.15;;
75413;SDS011;64758;52.122;5.404;2022-12-13T03:28:24;15.20;;;8.15;;
75413;SDS011;64758;52.122;5.404;2022-12-13T03:30:51;17.63;;;7.97;;
75413;SDS011;64758;52.122;5.404;2022-12-13T03:33:17;19.92;;;8.68;;
75413;SDS011;64758;52.122;5.404;2022-12-13T03:35:44;22.42;;;9.02;;
75413;SDS011;64758;52.122;5.404;2022-12-13T03:38:14;19.02;;;8.50;;
75413;SDS011;64758;52.122;5.404;2022-12-13T03:40:49;21.30;;;7.83;;
75413;SDS011;64758;52.122;5.404;2022-12-13T03:43:20;17.38;;;7.88;;
75413;SDS011;64758;52.122;5.404;2022-12-13T03:45:49;21.98;;;9.07;;
75413;SDS011;64758;52.122;5.404;2022-12-13T03:48:16;23.08;;;8.82;;
75413;SDS011;64758;52.122;5.404;2022-12-13T03:50:48;21.23;;;8.20;;
75413;SDS011;64758;52.122;5.404;2022-12-13T03:53:15;19.13;;;8.20;;
75413;SDS011;64758;52.122;5.404;2022-12-13T03:55:59;22.33;;;7.75;;
75413;SDS011;64758;52.122;5.404;2022-12-13T03:58:30;18.30;;;8.27;;
75413;SDS011;64758;52.122;5.404;2022-12-13T04:01:06;17.95;;;7.45;;
75413;SDS011;64758;52.122;5.404;2022-12-13T04:03:35;15.98;;;6.97;;
75413;SDS011;64758;52.122;5.404;2022-12-13T04:06:03;16.80;;;7.97;;
75413;SDS011;64758;52.122;5.404;2022-12-13T04:08:30;22.37;;;7.83;;
75413;SDS011;64758;52.122;5.404;2022-12-13T04:10:57;20.20;;;8.90;;
75413;SDS011;64758;52.122;5.404;2022-12-13T04:13:24;18.38;;;8.32;;
75413;SDS011;64758;52.122;5.404;2022-12-13T04:15:59;15.97;;;7.17;;
75413;SDS011;64758;52.122;5.404;2022-12-13T04:18:27;18.67;;;8.38;;
75413;SDS011;64758;52.122;5.404;2022-12-13T04:20:54;18.15;;;8.38;;
75413;SDS011;64758;52.122;5.404;2022-12-13T04:23:20;14.73;;;7.00;;
75413;SDS011;64758;52.122;5.404;2022-12-13T04:25:46;20.33;;;8.50;;
75413;SDS011;64758;52.122;5.404;2022-12-13T04:28:13;18.98;;;7.57;;
75413;SDS011;64758;52.122;5.404;2022-12-13T04:30:48;20.77;;;8.32;;
75413;SDS011;64758;52.122;5.404;2022-12-13T04:33:19;16.88;;;8.43;;
75413;SDS011;64758;52.122;5.404;2022-12-13T04:35:47;16.20;;;7.63;;
75413;SDS011;64758;52.122;5.404;2022-12-13T04:38:14;22.73;;;9.13;;
75413;SDS011;64758;52.122;5.404;2022-12-13T04:40:40;18.15;;;7.75;;
75413;SDS011;64758;52.122;5.404;2022-12-13T04:43:07;16.80;;;8.10;;
75413;SDS011;64758;52.122;5.404;2022-12-13T04:45:34;21.77;;;9.02;;
75413;SDS011;64758;52.122;5.404;2022-12-13T04:48:01;20.08;;;8.30;;
75413;SDS011;64758;52.122;5.404;2022-12-13T04:50:27;22.17;;;8.38;;
75413;SDS011;64758;52.122;5.404;2022-12-13T04:52:54;20.95;;;8.55;;
75413;SDS011;64758;52.122;5.404;2022-12-13T04:55:20;24.55;;;9.80;;
75413;SDS011;64758;52.122;5.404;2022-12-13T04:57:47;23.13;;;9.25;;
75413;SDS011;64758;52.122;5.404;2022-12-13T05:00:13;19.00;;;8.53;;
75413;SDS011;64758;52.122;5.404;2022-12-13T05:02:40;20.00;;;8.95;;
75413;SDS011;64758;52.122;5.404;2022-12-13T05:05:08;19.20;;;8.77;;
75413;SDS011;64758;52.122;5.404;2022-12-13T05:07:36;20.93;;;9.43;;
75413;SDS011;64758;52.122;5.404;2022-12-13T05:10:08;22.70;;;9.45;;
75413;SDS011;64758;52.122;5.404;2022-12-13T05:12:35;25.88;;;10.23;;
75413;SDS011;64758;52.122;5.404;2022-12-13T05:15:02;22.70;;;9.23;;
75413;SDS011;64758;52.122;5.404;2022-12-13T05:17:29;24.35;;;8.40;;
75413;SDS011;64758;52.122;5.404;2022-12-13T05:19:55;19.55;;;9.02;;
75413;SDS011;64758;52.122;5.404;2022-12-13T05:22:22;22.52;;;10.43;;
75413;SDS011;64758;52.122;5.404;2022-12-13T05:24:49;19.47;;;8.07;;
75413;SDS011;64758;52.122;5.404;2022-12-13T05:27:16;20.15;;;8.02;;
75413;SDS011;64758;52.122;5.404;2022-12-13T05:29:52;19.20;;;8.90;;
75413;SDS011;64758;52.122;5.404;2022-12-13T05:32:33;17.73;;;9.30;;
75413;SDS011;64758;52.122;5.404;2022-12-13T05:35:13;19.42;;;7.97;;
75413;SDS011;64758;52.122;5.404;2022-12-13T05:37:48;16.35;;;7.88;;
75413;SDS011;64758;52.122;5.404;2022-12-13T05:40:19;17.80;;;7.72;;
75413;SDS011;64758;52.122;5.404;2022-12-13T05:42:47;21.57;;;8.30;;
75413;SDS011;64758;52.122;5.404;2022-12-13T05:45:13;20.38;;;8.15;;
75413;SDS011;64758;52.122;5.404;2022-12-13T05:47:42;19.92;;;8.43;;
75413;SDS011;64758;52.122;5.404;2022-12-13T05:50:09;17.60;;;7.37;;
75413;SDS011;64758;52.122;5.404;2022-12-13T05:52:36;15.70;;;7.50;;
75413;SDS011;64758;52.122;5.404;2022-12-13T05:55:03;17.90;;;7.93;;
75413;SDS011;64758;52.122;5.404;2022-12-13T05:57:30;16.67;;;7.72;;
75413;SDS011;64758;52.122;5.404;2022-12-13T05:59:59;19.35;;;8.02;;
75413;SDS011;64758;52.122;5.404;2022-12-13T06:02:26;18.63;;;8.13;;
75413;SDS011;64758;52.122;5.404;2022-12-13T06:04:53;19.80;;;9.23;;
75413;SDS011;64758;52.122;5.404;2022-12-13T06:07:19;20.37;;;8.83;;
75413;SDS011;64758;52.122;5.404;2022-12-13T06:09:46;16.30;;;8.50;;
75413;SDS011;64758;52.122;5.404;2022-12-13T06:12:12;22.75;;;8.40;;
75413;SDS011;64758;52.122;5.404;2022-12-13T06:14:57;23.92;;;8.35;;
75413;SDS011;64758;52.122;5.404;2022-12-13T06:17:33;20.73;;;8.45;;
75413;SDS011;64758;52.122;5.404;2022-12-13T06:20:02;22.38;;;8.55;;
75413;SDS011;64758;52.122;5.404;2022-12-13T06:22:49;21.65;;;8.32;;
75413;SDS011;64758;52.122;5.404;2022-12-13T06:25:18;19.33;;;8.67;;
75413;SDS011;64758;52.122;5.404;2022-12-13T06:27:57;19.15;;;8.10;;
75413;SDS011;64758;52.122;5.404;2022-12-13T06:30:27;16.15;;;7.88;;
75413;SDS011;64758;52.122;5.404;2022-12-13T06:32:54;23.73;;;8.88;;
75413;SDS011;64758;52.122;5.404;2022-12-13T06:35:20;19.92;;;8.93;;
75413;SDS011;64758;52.122;5.404;2022-12-13T06:37:54;23.42;;;8.50;;
75413;SDS011;64758;52.122;5.404;2022-12-13T06:40:26;16.60;;;7.95;;
75413;SDS011;64758;52.122;5.404;2022-12-13T06:42:53;18.93;;;8.50;;
75413;SDS011;64758;52.122;5.404;2022-12-13T06:45:20;20.75;;;7.63;;
75413;SDS011;64758;52.122;5.404;2022-12-13T06:47:46;21.40;;;8.25;;
75413;SDS011;64758;52.122;5.404;2022-12-13T06:50:13;21.73;;;9.00;;
75413;SDS011;64758;52.122;5.404;2022-12-13T06:52:40;19.13;;;8.45;;
75413;SDS011;64758;52.122;5.404;2022-12-13T06:55:06;19.13;;;8.65;;
75413;SDS011;64758;52.122;5.404;2022-12-13T06:57:33;28.77;;;10.55;;
75413;SDS011;64758;52.122;5.404;2022-12-13T07:00:00;31.92;;;14.23;;
75413;SDS011;64758;52.122;5.404;2022-12-13T07:02:28;55.58;;;16.95;;
75413;SDS011;64758;52.122;5.404;2022-12-13T07:04:55;45.25;;;15.43;;
75413;SDS011;64758;52.122;5.404;2022-12-13T07:07:22;30.03;;;12.07;;
75413;SDS011;64758;52.122;5.404;2022-12-13T07:09:49;30.40;;;12.43;;
75413;SDS011;64758;52.122;5.404;2022-12-13T07:12:16;33.20;;;11.30;;
75413;SDS011;64758;52.122;5.404;2022-12-13T07:14:44;33.27;;;11.40;;
75413;SDS011;64758;52.122;5.404;2022-12-13T07:17:11;23.15;;;9.25;;
75413;SDS011;64758;52.122;5.404;2022-12-13T07:19:57;27.33;;;10.25;;
75413;SDS011;64758;52.122;5.404;2022-12-13T07:22:26;22.27;;;9.45;;
75413;SDS011;64758;52.122;5.404;2022-12-13T07:24:53;28.48;;;9.48;;
75413;SDS011;64758;52.122;5.404;2022-12-13T07:27:19;19.33;;;8.82;;
75413;SDS011;64758;52.122;5.404;2022-12-13T07:29:46;24.67;;;9.73;;
75413;SDS011;64758;52.122;5.404;2022-12-13T07:32:12;27.00;;;9.53;;
75413;SDS011;64758;52.122;5.404;2022-12-13T07:34:39;22.27;;;9.88;;
75413;SDS011;64758;52.122;5.404;2022-12-13T07:37:07;27.40;;;10.65;;
75413;SDS011;64758;52.122;5.404;2022-12-13T07:39:54;26.00;;;12.13;;
75413;SDS011;64758;52.122;5.404;2022-12-13T07:42:28;24.70;;;10.07;;
75413;SDS011;64758;52.122;5.404;2022-12-13T07:44:54;22.13;;;9.43;;
75413;SDS011;64758;52.122;5.404;2022-12-13T07:47:21;21.83;;;9.77;;
75413;SDS011;64758;52.122;5.404;2022-12-13T07:49:48;25.85;;;9.75;;
75413;SDS011;64758;52.122;5.404;2022-12-13T07:52:14;19.45;;;8.93;;
75413;SDS011;64758;52.122;5.404;2022-12-13T07:54:41;22.10;;;8.55;;
75413;SDS011;64758;52.122;5.404;2022-12-13T07:57:07;19.97;;;7.67;;
75413;SDS011;64758;52.122;5.404;2022-12-13T07:59:34;22.13;;;8.18;;
75413;SDS011;64758;52.122;5.404;2022-12-13T08:02:00;20.73;;;9.02;;
75413;SDS011;64758;52.122;5.404;2022-12-13T08:04:27;18.77;;;8.47;;
75413;SDS011;64758;52.122;5.404;2022-12-13T08:07:05;19.38;;;8.35;;
75413;SDS011;64758;52.122;5.404;2022-12-13T08:09:31;19.23;;;8.15;;
75413;SDS011;64758;52.122;5.404;2022-12-13T08:11:58;24.40;;;9.02;;
75413;SDS011;64758;52.122;5.404;2022-12-13T08:14:26;16.02;;;7.68;;
75413;SDS011;64758;52.122;5.404;2022-12-13T08:16:53;22.65;;;8.93;;
75413;SDS011;64758;52.122;5.404;2022-12-13T08:19:19;22.15;;;9.18;;
75413;SDS011;64758;52.122;5.404;2022-12-13T08:21:46;19.20;;;8.20;;
75413;SDS011;64758;52.122;5.404;2022-12-13T08:24:24;20.70;;;8.43;;
75413;SDS011;64758;52.122;5.404;2022-12-13T08:26:52;23.35;;;9.98;;
75413;SDS011;64758;52.122;5.404;2022-12-13T08:29:20;20.60;;;8.97;;
75413;SDS011;64758;52.122;5.404;2022-12-13T08:32:00;17.23;;;8.57;;
75413;SDS011;64758;52.122;5.404;2022-12-13T08:34:28;22.48;;;9.48;;
75413;SDS011;64758;52.122;5.404;2022-12-13T08:36:55;21.58;;;9.13;;
75413;SDS011;64758;52.122;5.404;2022-12-13T08:39:28;26.10;;;9.35;;
75413;SDS011;64758;52.122;5.404;2022-12-13T08:42:04;20.70;;;9.43;;
75413;SDS011;64758;52.122;5.404;2022-12-13T08:44:43;19.27;;;9.45;;
75413;SDS011;64758;52.122;5.404;2022-12-13T08:47:11;22.13;;;9.87;;
75413;SDS011;64758;52.122;5.404;2022-12-13T08:49:50;21.00;;;9.85;;
75413;SDS011;64758;52.122;5.404;2022-12-13T08:52:17;21.35;;;8.85;;
75413;SDS011;64758;52.122;5.404;2022-12-13T08:54:44;22.02;;;10.30;;
75413;SDS011;64758;52.122;5.404;2022-12-13T08:57:11;20.20;;;8.52;;
75413;SDS011;64758;52.122;5.404;2022-12-13T08:59:38;22.55;;;9.80;;
75413;SDS011;64758;52.122;5.404;2022-12-13T09:02:04;23.27;;;9.52;;
75413;SDS011;64758;52.122;5.404;2022-12-13T09:04:31;23.03;;;9.83;;
75413;SDS011;64758;52.122;5.404;2022-12-13T09:06:57;23.08;;;9.32;;
75413;SDS011;64758;52.122;5.404;2022-12-13T09:09:27;23.52;;;9.68;;
75413;SDS011;64758;52.122;5.404;2022-12-13T09:11:54;21.95;;;10.20;;
75413;SDS011;64758;52.122;5.404;2022-12-13T09:14:25;25.53;;;11.30;;
75413;SDS011;64758;52.122;5.404;2022-12-13T09:16:59;22.48;;;9.60;;
75413;SDS011;64758;52.122;5.404;2022-12-13T09:19:28;24.38;;;9.00;;
75413;SDS011;64758;52.122;5.404;2022-12-13T09:22:02;20.90;;;9.25;;
75413;SDS011;64758;52.122;5.404;2022-12-13T09:24:29;19.87;;;9.87;;
75413;SDS011;64758;52.122;5.404;2022-12-13T09:27:02;21.63;;;10.07;;
75413;SDS011;64758;52.122;5.404;2022-12-13T09:29:35;24.45;;;9.50;;
75413;SDS011;64758;52.122;5.404;2022-12-13T09:32:03;22.10;;;10.55;;
75413;SDS011;64758;52.122;5.404;2022-12-13T09:34:30;25.63;;;9.90;;
75413;SDS011;64758;52.122;5.404;2022-12-13T09:36:58;21.55;;;10.55;;
75413;SDS011;64758;52.122;5.404;2022-12-13T09:39:27;28.20;;;10.77;;
75413;SDS011;64758;52.122;5.404;2022-12-13T09:41:55;22.73;;;10.38;;
75413;SDS011;64758;52.122;5.404;2022-12-13T09:44:32;23.80;;;10.30;;
75413;SDS011;64758;52.122;5.404;2022-12-13T09:47:27;28.35;;;10.68;;
75413;SDS011;64758;52.122;5.404;2022-12-13T09:50:00;27.55;;;11.75;;
75413;SDS011;64758;52.122;5.404;2022-12-13T09:52:35;25.08;;;12.18;;
75413;SDS011;64758;52.122;5.404;2022-12-13T09:55:04;32.53;;;12.27;;
75413;SDS011;64758;52.122;5.404;2022-12-13T09:57:43;28.63;;;10.87;;
75413;SDS011;64758;52.122;5.404;2022-12-13T10:00:12;23.83;;;11.23;;
75413;SDS011;64758;52.122;5.404;2022-12-13T10:02:51;28.25;;;11.93;;
75413;SDS011;64758;52.122;5.404;2022-12-13T10:05:21;29.63;;;12.60;;
75413;SDS011;64758;52.122;5.404;2022-12-13T10:08:13;25.90;;;12.02;;
75413;SDS011;64758;52.122;5.404;2022-12-13T10:10:42;28.43;;;13.10;;
75413;SDS011;64758;52.122;5.404;2022-12-13T10:15:55;32.40;;;12.73;;
75413;SDS011;64758;52.122;5.404;2022-12-13T10:18:32;29.65;;;12.85;;
75413;SDS011;64758;52.122;5.404;2022-12-13T10:21:04;29.40;;;13.23;;
75413;SDS011;64758;52.122;5.404;2022-12-13T10:23:36;33.93;;;13.90;;
75413;SDS011;64758;52.122;5.404;2022-12-13T10:26:23;29.17;;;12.65;;
75413;SDS011;64758;52.122;5.404;2022-12-13T10:28:51;29.77;;;13.38;;
75413;SDS011;64758;52.122;5.404;2022-12-13T10:31:27;32.58;;;14.02;;
75413;SDS011;64758;52.122;5.404;2022-12-13T10:33:54;37.33;;;14.77;;
75413;SDS011;64758;52.122;5.404;2022-12-13T10:36:32;29.00;;;14.43;;
75413;SDS011;64758;52.122;5.404;2022-12-13T10:39:01;31.13;;;13.43;;
75413;SDS011;64758;52.122;5.404;2022-12-13T10:41:32;32.28;;;14.50;;
75413;SDS011;64758;52.122;5.404;2022-12-13T10:46:41;34.10;;;14.48;;
75413;SDS011;64758;52.122;5.404;2022-12-13T10:49:17;31.43;;;15.23;;
75413;SDS011;64758;52.122;5.404;2022-12-13T10:51:48;37.63;;;15.93;;
75413;SDS011;64758;52.122;5.404;2022-12-13T10:54:21;34.25;;;16.08;;
75413;SDS011;64758;52.122;5.404;2022-12-13T10:56:53;35.65;;;16.05;;
75413;SDS011;64758;52.122;5.404;2022-12-13T10:59:27;32.15;;;16.23;;
75413;SDS011;64758;52.122;5.404;2022-12-13T11:02:01;39.37;;;15.37;;
75413;SDS011;64758;52.122;5.404;2022-12-13T11:04:47;33.17;;;15.77;;
75413;SDS011;64758;52.122;5.404;2022-12-13T11:07:21;36.53;;;15.93;;
75413;SDS011;64758;52.122;5.404;2022-12-13T11:09:56;36.33;;;15.60;;
75413;SDS011;64758;52.122;5.404;2022-12-13T11:12:31;39.15;;;16.17;;
75413;SDS011;64758;52.122;5.404;2022-12-13T11:15:04;37.97;;;15.87;;
75413;SDS011;64758;52.122;5.404;2022-12-13T11:17:45;32.45;;;14.98;;
75413;SDS011;64758;52.122;5.404;2022-12-13T11:20:20;36.10;;;15.35;;
75413;SDS011;64758;52.122;5.404;2022-12-13T11:22:57;31.02;;;14.68;;
75413;SDS011;64758;52.122;5.404;2022-12-13T11:25:32;32.47;;;15.52;;
75413;SDS011;64758;52.122;5.404;2022-12-13T11:33:30;29.30;;;13.20;;
75413;SDS011;64758;52.122;5.404;2022-12-13T11:39:03;31.10;;;13.90;;
75413;SDS011;64758;52.122;5.404;2022-12-13T11:41:35;28.37;;;13.23;;
75413;SDS011;64758;52.122;5.404;2022-12-13T11:46:56;30.55;;;13.50;;
75413;SDS011;64758;52.122;5.404;2022-12-13T11:49:34;30.58;;;11.88;;
75413;SDS011;64758;52.122;5.404;2022-12-13T12:00:04;27.23;;;13.93;;
75413;SDS011;64758;52.122;5.404;2022-12-13T12:03:02;26.95;;;12.75;;
75413;SDS011;64758;52.122;5.404;2022-12-13T12:05:40;28.13;;;13.02;;
75413;SDS011;64758;52.122;5.404;2022-12-13T12:08:32;25.73;;;13.27;;
75413;SDS011;64758;52.122;5.404;2022-12-13T12:13:46;27.85;;;12.75;;
75413;SDS011;64758;52.122;5.404;2022-12-13T12:19:22;29.60;;;13.60;;
75413;SDS011;64758;52.122;5.404;2022-12-13T12:22:22;30.77;;;14.03;;
75413;SDS011;64758;52.122;5.404;2022-12-13T12:27:56;27.85;;;12.93;;
75413;SDS011;64758;52.122;5.404;2022-12-13T12:30:40;31.13;;;13.85;;
75413;SDS011;64758;52.122;5.404;2022-12-13T12:39:21;27.88;;;12.95;;
75413;SDS011;64758;52.122;5.404;2022-12-13T12:42:19;27.20;;;12.25;;
75413;SDS011;64758;52.122;5.404;2022-12-13T12:47:42;27.83;;;13.50;;
75413;SDS011;64758;52.122;5.404;2022-12-13T12:56:01;24.75;;;12.63;;
75413;SDS011;64758;52.122;5.404;2022-12-13T12:58:32;30.88;;;13.23;;
75413;SDS011;64758;52.122;5.404;2022-12-13T13:03:41;32.33;;;12.60;;
75413;SDS011;64758;52.122;5.404;2022-12-13T13:06:11;29.58;;;12.68;;
75413;SDS011;64758;52.122;5.404;2022-12-13T13:08:49;24.70;;;12.27;;
75413;SDS011;64758;52.122;5.404;2022-12-13T13:11:22;28.38;;;13.23;;
75413;SDS011;64758;52.122;5.404;2022-12-13T13:13:59;30.58;;;12.90;;
75413;SDS011;64758;52.122;5.404;2022-12-13T13:16:39;30.17;;;12.27;;
75413;SDS011;64758;52.122;5.404;2022-12-13T13:24:58;30.70;;;13.00;;
75413;SDS011;64758;52.122;5.404;2022-12-13T13:27:45;31.70;;;13.70;;
75413;SDS011;64758;52.122;5.404;2022-12-13T13:32:44;30.45;;;12.68;;
75413;SDS011;64758;52.122;5.404;2022-12-13T13:35:44;29.73;;;14.52;;
75413;SDS011;64758;52.122;5.404;2022-12-13T13:38:03;26.60;;;12.30;;
75413;SDS011;64758;52.122;5.404;2022-12-13T13:40:50;26.80;;;13.65;;
75413;SDS011;64758;52.122;5.404;2022-12-13T13:43:26;35.47;;;13.03;;
75413;SDS011;64758;52.122;5.404;2022-12-13T13:57:26;30.17;;;13.60;;
75413;SDS011;64758;52.122;5.404;2022-12-13T14:00:22;34.17;;;14.35;;
75413;SDS011;64758;52.122;5.404;2022-12-13T14:08:50;32.42;;;14.07;;
75413;SDS011;64758;52.122;5.404;2022-12-13T14:23:10;31.52;;;13.80;;
75413;SDS011;64758;52.122;5.404;2022-12-13T14:31:12;28.90;;;13.57;;
75413;SDS011;64758;52.122;5.404;2022-12-13T14:33:47;26.50;;;12.32;;
75413;SDS011;64758;52.122;5.404;2022-12-13T14:36:17;26.45;;;12.38;;
75413;SDS011;64758;52.122;5.404;2022-12-13T14:38:57;26.43;;;11.70;;
75413;SDS011;64758;52.122;5.404;2022-12-13T14:41:26;30.55;;;12.20;;
75413;SDS011;64758;52.122;5.404;2022-12-13T14:43:52;28.65;;;12.77;;
75413;SDS011;64758;52.122;5.404;2022-12-13T14:46:19;25.25;;;12.18;;
75413;SDS011;64758;52.122;5.404;2022-12-13T14:48:49;26.60;;;12.43;;
75413;SDS011;64758;52.122;5.404;2022-12-13T14:51:36;25.90;;;12.67;;
75413;SDS011;64758;52.122;5.404;2022-12-13T14:54:03;27.58;;;13.00;;
75413;SDS011;64758;52.122;5.404;2022-12-13T14:56:32;26.08;;;13.00;;
75413;SDS011;64758;52.122;5.404;2022-12-13T14:59:00;29.83;;;12.45;;
75413;SDS011;64758;52.122;5.404;2022-12-13T15:01:33;29.58;;;14.65;;
75413;SDS011;64758;52.122;5.404;2022-12-13T15:07:08;29.00;;;13.45;;
75413;SDS011;64758;52.122;5.404;2022-12-13T15:09:43;28.60;;;12.45;;
75413;SDS011;64758;52.122;5.404;2022-12-13T15:12:14;28.95;;;12.43;;
75413;SDS011;64758;52.122;5.404;2022-12-13T15:15:01;28.13;;;12.93;;
75413;SDS011;64758;52.122;5.404;2022-12-13T15:17:34;28.13;;;12.33;;
75413;SDS011;64758;52.122;5.404;2022-12-13T15:22:57;30.38;;;12.45;;
75413;SDS011;64758;52.122;5.404;2022-12-13T15:25:26;31.73;;;13.13;;
75413;SDS011;64758;52.122;5.404;2022-12-13T15:27:54;28.48;;;13.00;;
75413;SDS011;64758;52.122;5.404;2022-12-13T15:30:21;25.63;;;11.53;;
75413;SDS011;64758;52.122;5.404;2022-12-13T15:33:05;29.40;;;12.40;;
75413;SDS011;64758;52.122;5.404;2022-12-13T15:35:33;26.88;;;11.82;;
75413;SDS011;64758;52.122;5.404;2022-12-13T15:38:02;27.33;;;12.80;;
75413;SDS011;64758;52.122;5.404;2022-12-13T15:40:29;27.75;;;12.65;;
75413;SDS011;64758;52.122;5.404;2022-12-13T15:42:56;32.60;;;13.07;;
75413;SDS011;64758;52.122;5.404;2022-12-13T15:45:23;27.15;;;11.18;;
75413;SDS011;64758;52.122;5.404;2022-12-13T15:48:00;28.23;;;11.98;;
75413;SDS011;64758;52.122;5.404;2022-12-13T15:52:59;25.27;;;11.75;;
75413;SDS011;64758;52.122;5.404;2022-12-13T15:55:32;26.27;;;11.07;;
75413;SDS011;64758;52.122;5.404;2022-12-13T15:58:01;29.40;;;12.20;;
75413;SDS011;64758;52.122;5.404;2022-12-13T16:00:29;26.33;;;10.73;;
75413;SDS011;64758;52.122;5.404;2022-12-13T16:03:00;27.02;;;12.15;;
75413;SDS011;64758;52.122;5.404;2022-12-13T16:05:36;30.92;;;12.07;;
75413;SDS011;64758;52.122;5.404;2022-12-13T16:08:16;26.50;;;10.97;;
75413;SDS011;64758;52.122;5.404;2022-12-13T16:10:49;23.75;;;10.93;;
75413;SDS011;64758;52.122;5.404;2022-12-13T16:13:25;25.30;;;12.82;;
75413;SDS011;64758;52.122;5.404;2022-12-13T16:18:54;23.27;;;11.13;;
75413;SDS011;64758;52.122;5.404;2022-12-13T16:21:23;28.70;;;10.77;;
75413;SDS011;64758;52.122;5.404;2022-12-13T16:23:50;30.35;;;11.60;;
75413;SDS011;64758;52.122;5.404;2022-12-13T16:26:21;28.58;;;11.68;;
75413;SDS011;64758;52.122;5.404;2022-12-13T16:28:51;27.95;;;12.10;;
75413;SDS011;64758;52.122;5.404;2022-12-13T16:31:23;27.17;;;11.88;;
75413;SDS011;64758;52.122;5.404;2022-12-13T16:33:51;23.93;;;11.00;;
75413;SDS011;64758;52.122;5.404;2022-12-13T16:36:18;29.00;;;11.32;;
75413;SDS011;64758;52.122;5.404;2022-12-13T16:38:44;29.88;;;12.90;;
75413;SDS011;64758;52.122;5.404;2022-12-13T16:41:11;26.48;;;12.90;;
75413;SDS011;64758;52.122;5.404;2022-12-13T16:43:39;28.52;;;12.55;;
75413;SDS011;64758;52.122;5.404;2022-12-13T16:46:16;26.87;;;11.57;;
75413;SDS011;64758;52.122;5.404;2022-12-13T16:49:04;27.33;;;11.40;;
75413;SDS011;64758;52.122;5.404;2022-12-13T16:51:42;27.38;;;12.30;;
75413;SDS011;64758;52.122;5.404;2022-12-13T16:54:14;29.20;;;12.02;;
75413;SDS011;64758;52.122;5.404;2022-12-13T16:56:40;26.33;;;10.90;;
75413;SDS011;64758;52.122;5.404;2022-12-13T16:59:08;27.23;;;11.30;;
75413;SDS011;64758;52.122;5.404;2022-12-13T17:01:38;26.63;;;11.75;;
75413;SDS011;64758;52.122;5.404;2022-12-13T17:04:05;30.23;;;12.05;;
75413;SDS011;64758;52.122;5.404;2022-12-13T17:06:40;29.75;;;11.98;;
75413;SDS011;64758;52.122;5.404;2022-12-13T17:09:07;28.77;;;11.88;;